Time;durP1;ratioP1;P1;durP2;ratioP2;P2;SDS_P1;SDS_P2;PMS_P1;PMS_P2;Temp;Humidity;BMP_temperature;BMP_pressure;BME280_temperature;BME280_humidity;BME280_pressure;Samples;Min_cycle;Max_cycle;Signal;HPM_P1;HPM_P2
2021/05/18 00:00:46;;;;;;;0.05;0.05;;;16.20;84.00;;;;;;4190747;28;20063;-47
2021/05/18 00:03:08;;;;;;;0.40;0.40;;;16.20;84.00;;;;;;4178015;28;20561;-50
2021/05/18 00:05:30;;;;;;;0.00;0.00;;;16.30;84.10;;;;;;4192215;28;20060;-48
2021/05/18 00:07:56;;;;;;;0.00;0.00;;;16.30;84.00;;;;;;4190401;28;20139;-47
2021/05/18 00:12:58;;;;;;;0.00;0.00;;;16.20;84.10;;;;;;4189525;28;20052;-46
2021/05/18 00:15:22;;;;;;;0.00;0.00;;;16.20;84.20;;;;;;4191974;28;20121;-47
2021/05/18 00:17:45;;;;;;;0.00;0.00;;;16.20;84.10;;;;;;4193369;28;20060;-47
2021/05/18 00:20:10;;;;;;;0.00;0.00;;;16.20;84.10;;;;;;4191819;28;20076;-47
2021/05/18 00:22:32;;;;;;;0.00;0.00;;;16.20;84.20;;;;;;4208223;28;20052;-50
2021/05/18 00:24:53;;;;;;;0.00;0.00;;;16.20;84.40;;;;;;4191923;28;20094;-51
2021/05/18 00:27:19;;;;;;;0.00;0.00;;;16.20;84.50;;;;;;4191717;28;20182;-48
2021/05/18 00:29:40;;;;;;;0.00;0.00;;;16.20;84.50;;;;;;4191646;28;20051;-48
2021/05/18 00:32:03;;;;;;;0.00;0.00;;;16.20;84.50;;;;;;4191237;28;20418;-48
2021/05/18 00:34:25;;;;;;;0.00;0.00;;;16.20;84.50;;;;;;4191307;28;20072;-50
2021/05/18 00:36:46;;;;;;;0.10;0.10;;;16.20;84.50;;;;;;4191593;28;20066;-51
2021/05/18 00:39:08;;;;;;;0.00;0.00;;;16.20;84.60;;;;;;4191657;28;20102;-49
2021/05/18 00:41:29;;;;;;;0.00;0.00;;;16.20;84.60;;;;;;4191665;28;20060;-49
2021/05/18 00:43:51;;;;;;;0.00;0.00;;;16.20;84.70;;;;;;4203826;28;20082;-49
2021/05/18 00:46:13;;;;;;;0.00;0.00;;;16.20;84.70;;;;;;4208169;28;20040;-52
2021/05/18 00:48:35;;;;;;;0.00;0.00;;;16.20;84.70;;;;;;4208418;28;20113;-48
2021/05/18 00:51:00;;;;;;;2.40;0.35;;;16.20;84.90;;;;;;4204201;28;20421;-53
2021/05/18 00:53:22;;;;;;;0.00;0.00;;;16.20;84.90;;;;;;4191266;28;20654;-48
2021/05/18 00:55:58;;;;;;;0.30;0.30;;;16.10;84.80;;;;;;4189956;28;20036;-48
2021/05/18 00:58:27;;;;;;;0.30;0.30;;;16.20;84.80;;;;;;4192593;28;20110;-52
2021/05/18 01:00:49;;;;;;;0.10;0.10;;;16.20;84.80;;;;;;4191214;28;20496;-50
2021/05/18 01:03:11;;;;;;;0.00;0.00;;;16.10;85.70;;;;;;4191314;28;20483;-52
2021/05/18 01:08:13;;;;;;;0.30;0.30;;;16.10;84.90;;;;;;4192059;28;20071;-51
2021/05/18 01:10:34;;;;;;;1.08;0.98;;;16.10;84.90;;;;;;4191271;28;20078;-46
2021/05/18 01:12:56;;;;;;;0.32;0.32;;;16.10;85.00;;;;;;4190998;28;20583;-47
2021/05/18 01:15:18;;;;;;;0.00;0.00;;;16.10;85.00;;;;;;4175951;28;20132;-46
2021/05/18 01:17:40;;;;;;;0.90;0.70;;;16.20;85.00;;;;;;4174976;28;20423;-47
2021/05/18 01:20:10;;;;;;;0.00;0.00;;;16.10;85.00;;;;;;4174235;28;20106;-50
2021/05/18 01:22:32;;;;;;;0.00;0.00;;;16.10;84.90;;;;;;4188975;28;20114;-49
2021/05/18 01:24:53;;;;;;;0.20;0.20;;;16.10;85.00;;;;;;4189314;28;20044;-48
2021/05/18 01:27:15;;;;;;;0.05;0.05;;;16.10;85.00;;;;;;4175472;28;20503;-47
2021/05/18 01:29:37;;;;;;;0.10;0.10;;;16.10;85.00;;;;;;4190858;28;20483;-45
2021/05/18 01:31:59;;;;;;;0.00;0.00;;;16.10;85.00;;;;;;4189558;28;20461;-51
2021/05/18 01:34:20;;;;;;;;;;;16.10;85.10;;;;;;4191394;28;20078;-46
2021/05/18 01:36:43;;;;;;;0.00;0.00;;;16.10;85.10;;;;;;4191139;28;20418;-47
2021/05/18 01:39:24;;;;;;;0.00;0.00;;;16.10;85.20;;;;;;4187773;28;20479;-47
2021/05/18 01:44:29;;;;;;;0.00;0.00;;;16.10;85.30;;;;;;4175592;28;20290;-48
2021/05/18 01:46:51;;;;;;;0.52;0.52;;;16.10;85.40;;;;;;4188319;28;20596;-50
2021/05/18 01:49:16;;;;;;;0.28;0.28;;;16.10;85.30;;;;;;4189933;28;21102;-49
2021/05/18 01:51:43;;;;;;;0.03;0.03;;;16.10;85.30;;;;;;4189518;28;20059;-47
2021/05/18 01:54:09;;;;;;;0.85;0.85;;;16.10;85.30;;;;;;4192307;28;20048;-51
2021/05/18 01:56:40;;;;;;;0.43;0.43;;;16.10;85.30;;;;;;4190320;28;20052;-50
2021/05/18 01:59:05;;;;;;;0.30;0.30;;;16.10;85.40;;;;;;4181510;28;20090;-46
2021/05/18 02:01:33;;;;;;;0.10;0.10;;;16.00;85.30;;;;;;4189436;28;20586;-46
2021/05/18 02:03:55;;;;;;;0.00;0.00;;;16.00;85.30;;;;;;4192503;28;20053;-47
2021/05/18 02:06:17;;;;;;;0.00;0.00;;;16.00;85.30;;;;;;4192242;28;20090;-48
2021/05/18 02:08:48;;;;;;;0.20;0.20;;;16.10;85.40;;;;;;4191887;28;20056;-48
2021/05/18 02:11:18;;;;;;;0.00;0.00;;;16.00;85.40;;;;;;4191299;28;20036;-47
2021/05/18 02:13:45;;;;;;;0.00;0.00;;;16.00;85.60;;;;;;4178941;28;20526;-51
2021/05/18 02:16:22;;;;;;;0.00;0.00;;;16.00;85.60;;;;;;4191907;28;20135;-46
2021/05/18 02:19:04;;;;;;;0.00;0.00;;;16.00;85.50;;;;;;4193488;28;20127;-51
2021/05/18 02:22:02;;;;;;;1.27;1.20;;;16.00;85.50;;;;;;4206601;28;20573;-47
2021/05/18 02:24:43;;;;;;;0.00;0.00;;;16.00;85.60;;;;;;4192230;28;20051;-47
2021/05/18 02:27:11;;;;;;;0.00;0.00;;;16.00;85.60;;;;;;4192881;28;20047;-46
2021/05/18 02:29:32;;;;;;;0.00;0.00;;;16.00;85.60;;;;;;4193557;28;20063;-50
2021/05/18 02:31:56;;;;;;;0.52;0.52;;;16.00;85.60;;;;;;4194490;28;20494;-45
2021/05/18 02:34:36;;;;;;;0.08;0.08;;;16.00;85.60;;;;;;4195109;28;20485;-47
2021/05/18 02:36:58;;;;;;;0.10;0.10;;;16.00;85.70;;;;;;4192055;28;20051;-47
2021/05/18 02:39:20;;;;;;;0.00;0.00;;;16.00;85.70;;;;;;4193576;28;20097;-47
2021/05/18 02:41:41;;;;;;;0.00;0.00;;;16.00;85.70;;;;;;4193376;28;20051;-48
2021/05/18 02:44:08;;;;;;;0.10;0.10;;;16.00;85.60;;;;;;4208868;28;20433;-49
2021/05/18 02:49:17;;;;;;;0.00;0.00;;;15.90;85.70;;;;;;4200219;28;20446;-46
2021/05/18 02:51:41;;;;;;;0.20;0.20;;;15.90;85.70;;;;;;4193477;28;20494;-46
2021/05/18 02:54:04;;;;;;;0.00;0.00;;;15.90;85.70;;;;;;4193285;28;20533;-46
2021/05/18 02:56:30;;;;;;;0.00;0.00;;;15.90;85.70;;;;;;4193443;28;20475;-49
2021/05/18 02:58:58;;;;;;;0.03;0.03;;;15.90;85.70;;;;;;4193167;28;20052;-51
2021/05/18 03:01:20;;;;;;;0.00;0.00;;;15.90;85.70;;;;;;4176999;28;20516;-49
2021/05/18 03:03:42;;;;;;;0.00;0.00;;;15.90;85.70;;;;;;4176565;28;20110;-46
2021/05/18 03:06:03;;;;;;;;;;;15.90;85.70;;;;;;4175464;28;20488;-48
2021/05/18 03:08:24;;;;;;;1.05;1.05;;;15.90;85.70;;;;;;4176376;28;20401;-48
2021/05/18 03:10:46;;;;;;;0.20;0.20;;;15.90;85.70;;;;;;4192977;28;20109;-46
2021/05/18 03:13:07;;;;;;;1.25;0.30;;;15.90;85.70;;;;;;4193334;28;20044;-47
2021/05/18 03:15:29;;;;;;;;;;;15.90;85.70;;;;;;4187274;28;20051;-47
2021/05/18 03:17:52;;;;;;;0.00;0.00;;;15.90;85.70;;;;;;4192382;28;19927;-50
2021/05/18 03:20:17;;;;;;;0.00;0.00;;;15.90;85.70;;;;;;4192818;28;20094;-48
2021/05/18 03:22:39;;;;;;;0.00;0.00;;;15.90;85.70;;;;;;4192860;28;20044;-46
2021/05/18 03:25:01;;;;;;;0.50;0.50;;;15.90;85.70;;;;;;4207323;28;20097;-50
2021/05/18 03:27:24;;;;;;;0.00;0.00;;;15.80;85.60;;;;;;4209077;28;20058;-49
2021/05/18 03:29:49;;;;;;;0.00;0.00;;;15.90;85.70;;;;;;4209266;28;20044;-50
2021/05/18 03:34:51;;;;;;;0.80;0.80;;;15.80;85.60;;;;;;4195879;28;20131;-49
2021/05/18 03:37:17;;;;;;;2.75;1.55;;;15.80;85.60;;;;;;4192730;28;20454;-50
2021/05/18 03:39:39;;;;;;;0.10;0.10;;;15.80;85.60;;;;;;4192235;28;20056;-48
2021/05/18 03:42:05;;;;;;;0.00;0.00;;;15.80;85.50;;;;;;4196908;28;20048;-51
2021/05/18 03:44:42;;;;;;;0.80;0.80;;;15.90;85.60;;;;;;4209118;28;20138;-47
2021/05/18 03:52:25;;;;;;;0.00;0.00;;;15.80;85.50;;;;;;4201565;28;20056;-49
2021/05/18 03:55:03;;;;;;;0.00;0.00;;;15.80;85.50;;;;;;4195447;28;20044;-50
2021/05/18 04:03:03;;;;;;;0.00;0.00;;;15.80;85.60;;;;;;4145014;28;20050;-48
2021/05/18 04:11:00;;;;;;;0.65;0.55;;;15.80;85.60;;;;;;4208172;28;20044;-46
2021/05/18 04:18:41;;;;;;;0.43;0.43;;;15.80;85.70;;;;;;4191313;28;20044;-51
2021/05/18 04:21:08;;;;;;;0.35;0.35;;;15.80;85.60;;;;;;4191897;28;20445;-46
2021/05/18 04:23:43;;;;;;;0.22;0.22;;;15.80;85.50;;;;;;4174808;28;20419;-48
2021/05/18 04:39:40;;;;;;;0.10;0.10;;;15.90;84.80;;;;;;4208633;28;20405;-50
2021/05/18 04:50:24;;;;;;;0.05;0.05;;;16.00;84.70;;;;;;4179820;28;20166;-49
2021/05/18 04:52:54;;;;;;;0.35;0.35;;;16.00;84.80;;;;;;4176340;28;20147;-49
2021/05/18 05:00:47;;;;;;;0.13;0.13;;;16.30;83.70;;;;;;4200216;28;20548;-50
2021/05/18 05:08:28;;;;;;;0.25;0.25;;;16.60;81.80;;;;;;4189516;28;20415;-48
2021/05/18 05:16:10;;;;;;;0.00;0.00;;;16.60;81.40;;;;;;4186888;28;20646;-49
2021/05/18 05:18:32;;;;;;;0.00;0.00;;;16.60;82.10;;;;;;4173165;28;20531;-46
2021/05/18 05:20:53;;;;;;;0.32;0.32;;;16.60;82.70;;;;;;4199772;28;20044;-48
2021/05/18 05:23:16;;;;;;;0.00;0.00;;;16.70;83.00;;;;;;4179345;28;20073;-49
2021/05/18 05:25:38;;;;;;;0.00;0.00;;;16.70;83.00;;;;;;4174524;28;20411;-47
2021/05/18 05:28:00;;;;;;;0.00;0.00;;;16.60;83.00;;;;;;4187837;28;20055;-44
2021/05/18 05:30:22;;;;;;;1.95;0.90;;;16.70;83.10;;;;;;4174537;28;20059;-48
2021/05/18 05:32:44;;;;;;;0.57;0.57;;;16.70;83.50;;;;;;4190721;28;20083;-50
2021/05/18 05:35:07;;;;;;;0.43;0.43;;;16.70;83.40;;;;;;4197885;28;20059;-49
2021/05/18 05:37:30;;;;;;;0.98;0.95;;;16.70;82.70;;;;;;4174223;28;20059;-48
2021/05/18 05:39:52;;;;;;;0.00;0.00;;;16.70;82.10;;;;;;4199718;28;20055;-51
2021/05/18 05:42:15;;;;;;;2.25;2.08;;;16.80;81.90;;;;;;4184520;28;20045;-50
2021/05/18 05:44:37;;;;;;;0.43;0.43;;;16.70;81.80;;;;;;4193311;28;20045;-48
2021/05/18 05:46:59;;;;;;;0.10;0.10;;;16.70;81.80;;;;;;4194159;28;20505;-49
2021/05/18 05:49:21;;;;;;;0.77;0.77;;;16.70;81.70;;;;;;4194526;28;20482;-50
2021/05/18 05:51:43;;;;;;;0.00;0.00;;;16.70;81.80;;;;;;4189259;28;20048;-52
2021/05/18 05:54:05;;;;;;;0.00;0.00;;;16.70;81.60;;;;;;4194244;28;20048;-47
2021/05/18 05:56:27;;;;;;;0.20;0.20;;;16.70;81.40;;;;;;4178948;28;20079;-47
2021/05/18 05:58:49;;;;;;;0.55;0.55;;;16.70;81.30;;;;;;4177529;28;20051;-49
2021/05/18 06:01:12;;;;;;;0.85;0.50;;;16.80;81.30;;;;;;4190478;28;20053;-53
2021/05/18 06:03:34;;;;;;;0.22;0.15;;;16.80;81.10;;;;;;4177365;28;20052;-47
2021/05/18 06:05:56;;;;;;;0.13;0.13;;;16.80;80.30;;;;;;4176209;28;20048;-47
2021/05/18 06:08:17;;;;;;;0.55;0.55;;;16.90;79.60;;;;;;4177539;28;20045;-48
2021/05/18 06:10:41;;;;;;;0.00;0.00;;;16.90;79.30;;;;;;4178905;28;20142;-47
2021/05/18 06:16:14;;;;;;;0.10;0.10;;;16.90;79.50;;;;;;4167974;28;20118;-53
2021/05/18 06:37:42;;;;;;;0.00;0.00;;;16.90;79.20;;;;;;4193260;28;20076;-51
2021/05/18 06:42:45;;;;;;;0.20;0.05;;;16.80;79.10;;;;;;4193085;28;20165;-50
2021/05/18 06:47:48;;;;;;;0.00;0.00;;;16.90;79.00;;;;;;4178154;28;20071;-47
2021/05/18 06:50:23;;;;;;;0.20;0.20;;;16.80;78.90;;;;;;4195553;28;20055;-51
2021/05/18 06:52:46;;;;;;;0.00;0.00;;;16.80;78.90;;;;;;4209084;28;20507;-48
2021/05/18 06:55:12;;;;;;;0.08;0.08;;;16.80;79.00;;;;;;4209995;28;20071;-48
2021/05/18 06:57:36;;;;;;;1.35;0.68;;;16.90;78.70;;;;;;4209874;28;20059;-48
2021/05/18 07:00:09;;;;;;;0.38;0.38;;;16.90;78.70;;;;;;4199808;28;20051;-49
2021/05/18 07:02:31;;;;;;;0.03;0.03;;;17.00;78.70;;;;;;4192856;28;20055;-49
2021/05/18 07:04:55;;;;;;;0.00;0.00;;;17.10;78.30;;;;;;4193310;28;20521;-49
2021/05/18 07:07:20;;;;;;;0.15;0.15;;;17.20;77.30;;;;;;4193260;28;20056;-50
2021/05/18 07:09:43;;;;;;;0.00;0.00;;;17.30;76.90;;;;;;4193044;28;20072;-52
2021/05/18 07:12:05;;;;;;;0.20;0.20;;;17.40;76.70;;;;;;4193158;28;20102;-52
2021/05/18 07:14:26;;;;;;;0.10;0.10;;;17.40;75.90;;;;;;4192946;28;20451;-48
2021/05/18 07:16:49;;;;;;;0.00;0.00;;;17.50;75.80;;;;;;4191613;28;20064;-50
2021/05/18 07:19:11;;;;;;;0.17;0.17;;;17.50;75.20;;;;;;4193075;28;20052;-51
2021/05/18 07:21:33;;;;;;;1.75;1.50;;;17.50;75.30;;;;;;4191468;28;20441;-53
2021/05/18 07:23:58;;;;;;;0.10;0.10;;;17.50;75.40;;;;;;4192733;28;20117;-48
2021/05/18 07:26:20;;;;;;;0.00;0.00;;;17.50;75.30;;;;;;4192293;28;20064;-48
2021/05/18 07:28:42;;;;;;;0.10;0.10;;;17.50;76.30;;;;;;4177674;28;20151;-46
2021/05/18 07:31:05;;;;;;;0.00;0.00;;;17.50;75.80;;;;;;4175795;28;20056;-49
2021/05/18 07:33:27;;;;;;;0.00;0.00;;;17.50;75.60;;;;;;4176063;28;20057;-48
2021/05/18 07:35:53;;;;;;;0.20;0.20;;;17.40;75.30;;;;;;4176386;28;20061;-49
2021/05/18 07:38:15;;;;;;;0.00;0.00;;;17.40;75.20;;;;;;4175604;28;20131;-51
2021/05/18 07:40:38;;;;;;;0.05;0.05;;;17.40;75.70;;;;;;4176138;28;20055;-48
2021/05/18 07:43:00;;;;;;;0.10;0.10;;;17.40;75.30;;;;;;4176420;28;20479;-50
2021/05/18 07:45:26;;;;;;;0.00;0.00;;;17.40;75.00;;;;;;4188560;28;20580;-50
2021/05/18 07:47:48;;;;;;;0.00;0.00;;;17.30;74.70;;;;;;4192798;28;20060;-53
2021/05/18 07:50:12;;;;;;;0.00;0.00;;;17.30;75.20;;;;;;4182032;28;20053;-49
2021/05/18 08:00:41;;;;;;;0.00;0.00;;;17.40;75.50;;;;;;4208750;28;20043;-51
2021/05/18 08:05:45;;;;;;;0.00;0.00;;;17.30;74.90;;;;;;4208819;28;20051;-46
2021/05/18 08:08:06;;;;;;;0.10;0.10;;;17.30;74.70;;;;;;4208904;28;20051;-48
2021/05/18 08:10:35;;;;;;;0.00;0.00;;;17.30;74.70;;;;;;4208977;28;20055;-49
2021/05/18 08:12:58;;;;;;;0.00;0.00;;;17.30;74.70;;;;;;4208745;28;20090;-51
2021/05/18 08:15:35;;;;;;;0.00;0.00;;;17.20;75.10;;;;;;4208960;28;20496;-53
2021/05/18 08:18:07;;;;;;;0.30;0.30;;;17.20;75.50;;;;;;4208661;28;20051;-52
2021/05/18 10:36:30;;;;;;;0.00;0.00;;;17.10;75.30;;;;;;4195628;28;20352;-49
2021/05/18 10:39:18;;;;;;;2.03;1.25;;;17.10;75.60;;;;;;4188334;28;20139;-50
2021/05/18 10:41:39;;;;;;;0.00;0.00;;;17.10;75.70;;;;;;4185986;28;20514;-49
2021/05/18 10:44:02;;;;;;;0.00;0.00;;;17.00;75.90;;;;;;4179805;28;20075;-48
2021/05/18 10:46:26;;;;;;;0.10;0.10;;;17.00;76.10;;;;;;4193355;28;20044;-46
2021/05/18 10:49:05;;;;;;;0.10;0.10;;;17.00;76.20;;;;;;4187346;28;20056;-45
2021/05/18 10:51:34;;;;;;;0.20;0.20;;;17.00;76.60;;;;;;4184146;28;20794;-45
2021/05/18 10:54:22;;;;;;;0.00;0.00;;;17.00;76.80;;;;;;4192919;28;20037;-48
2021/05/18 10:57:13;;;;;;;0.10;0.10;;;17.00;77.00;;;;;;4193207;28;20083;-49
2021/05/18 10:59:36;;;;;;;;;;;17.00;76.90;;;;;;4176956;28;20056;-47
2021/05/18 11:02:00;;;;;;;0.00;0.00;;;17.00;77.00;;;;;;4176484;28;19921;-47
2021/05/18 11:04:22;;;;;;;5.97;1.33;;;17.00;77.00;;;;;;4184236;28;20097;-49
2021/05/18 11:06:52;;;;;;;0.10;0.10;;;17.10;76.90;;;;;;4193188;28;20477;-50
2021/05/18 11:09:17;;;;;;;0.25;0.25;;;17.10;76.90;;;;;;4195553;28;20445;-48
2021/05/18 11:11:40;;;;;;;0.20;0.20;;;17.10;76.90;;;;;;4209378;28;20081;-49
2021/05/18 11:14:01;;;;;;;0.05;0.05;;;17.10;76.70;;;;;;4177671;28;20470;-47
2021/05/18 11:16:23;;;;;;;0.10;0.10;;;17.20;76.60;;;;;;4176346;28;20045;-45
2021/05/18 11:18:47;;;;;;;0.20;0.20;;;17.20;76.50;;;;;;4192850;28;20453;-45
2021/05/18 11:21:11;;;;;;;0.30;0.30;;;17.20;76.50;;;;;;4195415;28;20835;-48
2021/05/18 11:23:33;;;;;;;0.00;0.00;;;17.20;76.60;;;;;;4192718;28;20060;-44
2021/05/18 11:25:58;;;;;;;0.00;0.00;;;17.30;76.80;;;;;;4192757;28;20053;-46
2021/05/18 11:28:23;;;;;;;0.32;0.32;;;17.30;76.90;;;;;;4192436;28;20106;-44
2021/05/18 11:30:47;;;;;;;0.00;0.00;;;17.30;77.70;;;;;;4192816;28;20044;-48
2021/05/18 11:33:09;;;;;;;1.15;1.08;;;17.30;76.80;;;;;;4192635;28;20933;-46
2021/05/18 11:35:31;;;;;;;0.00;0.00;;;17.30;76.60;;;;;;4193108;28;20465;-45
2021/05/18 11:38:06;;;;;;;0.10;0.10;;;17.30;76.70;;;;;;4175651;28;20498;-46
2021/05/18 11:40:29;;;;;;;0.00;0.00;;;17.30;76.80;;;;;;4191862;28;20098;-45
2021/05/18 11:42:50;;;;;;;0.20;0.20;;;17.30;77.10;;;;;;4176325;28;20503;-47
2021/05/18 11:45:16;;;;;;;0.20;0.20;;;17.30;77.30;;;;;;4176109;28;20088;-47
2021/05/18 11:47:37;;;;;;;5.63;1.00;;;17.30;77.60;;;;;;4175713;28;20052;-44
2021/05/18 11:49:59;;;;;;;3.63;1.45;;;17.30;77.50;;;;;;4175975;28;20810;-44
2021/05/18 11:52:20;;;;;;;0.25;0.25;;;17.30;77.50;;;;;;4176156;28;20053;-46
2021/05/18 11:54:42;;;;;;;0.10;0.10;;;17.30;77.60;;;;;;4184944;28;20631;-47
2021/05/18 11:57:05;;;;;;;0.00;0.00;;;17.30;77.50;;;;;;4192474;28;20040;-46
2021/05/18 11:59:27;;;;;;;0.05;0.05;;;17.30;77.40;;;;;;4192685;28;20406;-46
2021/05/18 12:01:51;;;;;;;2.05;0.80;;;17.30;77.30;;;;;;4192487;28;20499;-46
2021/05/18 12:04:15;;;;;;;0.00;0.00;;;17.30;77.20;;;;;;4192240;28;20127;-45
2021/05/18 12:06:40;;;;;;;0.00;0.00;;;17.30;77.00;;;;;;4192287;28;20437;-45
2021/05/18 12:09:02;;;;;;;0.00;0.00;;;17.30;77.00;;;;;;4191967;28;20124;-46
2021/05/18 12:11:24;;;;;;;0.10;0.10;;;17.30;77.00;;;;;;4192015;28;20044;-45
2021/05/18 12:13:47;;;;;;;0.00;0.00;;;17.30;77.10;;;;;;4185043;28;20174;-47
2021/05/18 12:16:10;;;;;;;0.28;0.28;;;17.20;77.20;;;;;;4175706;28;20140;-46
2021/05/18 12:18:34;;;;;;;0.57;0.43;;;17.20;77.10;;;;;;4196801;28;20040;-46
2021/05/18 12:21:01;;;;;;;0.25;0.25;;;17.20;77.30;;;;;;4176945;28;20044;-46
2021/05/18 12:23:23;;;;;;;0.20;0.20;;;17.20;77.40;;;;;;4177839;28;20068;-45
2021/05/18 12:25:44;;;;;;;0.00;0.00;;;17.10;77.40;;;;;;4191753;28;20056;-45
2021/05/18 12:28:11;;;;;;;0.00;0.00;;;17.10;77.60;;;;;;4191788;28;20418;-45
2021/05/18 12:30:38;;;;;;;0.00;0.00;;;17.10;77.60;;;;;;4191646;28;20151;-45
2021/05/18 12:33:00;;;;;;;0.00;0.00;;;17.10;77.60;;;;;;4191645;28;20044;-47
2021/05/18 12:35:23;;;;;;;0.08;0.08;;;17.10;77.50;;;;;;4193970;28;20127;-47
2021/05/18 12:37:47;;;;;;;0.10;0.10;;;17.20;77.50;;;;;;4208697;28;20032;-49
2021/05/18 12:40:13;;;;;;;0.00;0.00;;;17.20;77.40;;;;;;4195820;28;20149;-45
2021/05/18 12:42:35;;;;;;;0.15;0.15;;;17.20;77.40;;;;;;4208047;28;20040;-46
2021/05/18 12:44:59;;;;;;;0.00;0.00;;;17.20;77.30;;;;;;4208233;28;20491;-49
2021/05/18 12:47:27;;;;;;;0.80;0.55;;;17.20;77.30;;;;;;4208367;28;20052;-45
2021/05/18 12:49:50;;;;;;;0.10;0.10;;;17.30;77.10;;;;;;4207672;28;20052;-46
2021/05/18 12:52:14;;;;;;;0.00;0.00;;;17.30;77.20;;;;;;4207431;28;20134;-48
2021/05/18 12:54:54;;;;;;;0.10;0.10;;;17.20;77.30;;;;;;4208152;28;20048;-45
2021/05/18 12:57:20;;;;;;;0.00;0.00;;;17.20;77.20;;;;;;4191358;28;20052;-47
2021/05/18 13:00:10;;;;;;;0.00;0.00;;;17.20;77.20;;;;;;4191486;28;20043;-47
2021/05/18 13:02:36;;;;;;;2.50;0.47;;;17.20;77.20;;;;;;4192365;28;20052;-49
2021/05/18 13:05:07;;;;;;;0.63;0.63;;;17.10;77.00;;;;;;4198727;28;20047;-48
2021/05/18 13:07:30;;;;;;;0.00;0.00;;;17.10;77.30;;;;;;4197948;28;20047;-47
2021/05/18 13:10:05;;;;;;;0.28;0.28;;;17.10;77.40;;;;;;4198225;28;20056;-49
2021/05/18 13:12:27;;;;;;;0.00;0.00;;;17.10;77.40;;;;;;4190837;28;20414;-47
2021/05/18 13:14:56;;;;;;;0.00;0.00;;;17.10;77.80;;;;;;4190663;28;20060;-49
2021/05/18 13:17:21;;;;;;;0.00;0.00;;;17.10;77.90;;;;;;4197896;28;20093;-45
2021/05/18 13:19:42;;;;;;;0.00;0.00;;;17.10;78.20;;;;;;4192405;28;20050;-49
2021/05/18 13:22:04;;;;;;;0.47;0.47;;;17.10;78.20;;;;;;4191719;28;20056;-46
2021/05/18 13:27:06;;;;;;;0.00;0.00;;;17.10;78.10;;;;;;4188692;28;20056;-46
2021/05/18 13:29:28;;;;;;;0.40;0.40;;;17.10;78.10;;;;;;4190322;28;20102;-45
2021/05/18 13:31:51;;;;;;;1.08;0.98;;;17.10;78.10;;;;;;4187370;28;20060;-45
2021/05/18 13:34:32;;;;;;;0.35;0.35;;;17.00;78.10;;;;;;4173159;28;20184;-47
2021/05/18 13:36:54;;;;;;;1.02;0.95;;;17.00;78.30;;;;;;4176825;28;20055;-49
2021/05/18 13:39:18;;;;;;;1.35;1.25;;;17.00;78.40;;;;;;4174437;28;20044;-45
2021/05/18 13:41:40;;;;;;;1.80;0.40;;;17.00;78.50;;;;;;4173898;28;20479;-46
2021/05/18 13:44:03;;;;;;;0.00;0.00;;;17.00;78.50;;;;;;4205525;28;20047;-47
2021/05/18 13:46:26;;;;;;;0.00;0.00;;;17.00;78.70;;;;;;4205694;28;20131;-47
2021/05/18 13:49:04;;;;;;;0.00;0.00;;;17.00;78.20;;;;;;4207346;28;20051;-46
2021/05/18 13:51:25;;;;;;;0.20;0.20;;;17.00;78.40;;;;;;4191060;28;20052;-48
2021/05/18 13:53:47;;;;;;;0.00;0.00;;;17.00;78.50;;;;;;4190327;28;20465;-49
2021/05/18 13:56:13;;;;;;;0.00;0.00;;;17.00;78.60;;;;;;4189073;28;20495;-46
2021/05/18 13:58:35;;;;;;;;;;;17.00;78.70;;;;;;4190993;28;20047;-47
2021/05/18 14:00:56;;;;;;;0.00;0.00;;;17.00;78.80;;;;;;4192100;28;19928;-46
2021/05/18 14:03:18;;;;;;;0.00;0.00;;;17.00;78.90;;;;;;4195328;28;20482;-49
2021/05/18 14:05:39;;;;;;;0.38;0.38;;;17.00;79.00;;;;;;4194189;28;20041;-50
2021/05/18 14:08:28;;;;;;;0.22;0.22;;;17.00;79.00;;;;;;4194612;28;20048;-49
2021/05/18 14:10:51;;;;;;;0.10;0.10;;;17.00;79.00;;;;;;4197876;28;20055;-48
2021/05/18 14:13:12;;;;;;;0.00;0.00;;;16.90;79.00;;;;;;4180034;28;20056;-50
2021/05/18 14:15:36;;;;;;;0.00;0.00;;;16.90;79.00;;;;;;4177184;28;20049;-47
2021/05/18 14:17:58;;;;;;;0.00;0.00;;;16.90;79.20;;;;;;4190613;28;20080;-47
2021/05/18 14:20:20;;;;;;;0.00;0.00;;;16.90;79.30;;;;;;4192562;28;20490;-52
2021/05/18 14:22:42;;;;;;;1.02;0.63;;;16.90;79.50;;;;;;4177330;28;20052;-49
2021/05/18 14:25:06;;;;;;;2.05;0.68;;;16.90;79.60;;;;;;4187373;28;20500;-51
2021/05/18 14:27:27;;;;;;;0.10;0.10;;;16.90;79.50;;;;;;4193674;28;20052;-48
2021/05/18 14:29:49;;;;;;;0.00;0.00;;;16.90;79.50;;;;;;4193518;28;20080;-49
2021/05/18 14:32:12;;;;;;;5.68;1.08;;;16.90;80.50;;;;;;4180640;28;20087;-46
2021/05/18 14:34:33;;;;;;;3.15;0.57;;;16.90;79.60;;;;;;4185794;28;20052;-47
2021/05/18 14:36:55;;;;;;;0.00;0.00;;;16.90;79.70;;;;;;4208088;28;20127;-50
2021/05/18 14:39:23;;;;;;;0.00;0.00;;;16.90;79.80;;;;;;4210346;28;20075;-46
2021/05/18 14:44:25;;;;;;;0.08;0.08;;;16.80;79.80;;;;;;4204832;28;20047;-50
2021/05/18 14:46:52;;;;;;;0.00;0.00;;;16.80;79.90;;;;;;4200853;28;20053;-47
2021/05/18 14:57:14;;;;;;;0.22;0.22;;;16.80;80.10;;;;;;4178202;28;20554;-47
2021/05/18 14:59:36;;;;;;;0.25;0.25;;;16.80;80.20;;;;;;4176481;28;20064;-49
2021/05/18 15:01:57;;;;;;;0.00;0.00;;;16.90;80.30;;;;;;4179608;28;20135;-48
2021/05/18 15:04:20;;;;;;;0.00;0.00;;;16.80;80.30;;;;;;4190428;28;20048;-48
2021/05/18 15:06:42;;;;;;;0.00;0.00;;;16.80;80.30;;;;;;4181953;28;20040;-49
2021/05/18 15:09:04;;;;;;;0.20;0.20;;;16.80;80.40;;;;;;4183005;28;20083;-47
2021/05/18 15:11:26;;;;;;;0.10;0.10;;;16.80;80.40;;;;;;4175487;28;20061;-47
2021/05/18 15:13:48;;;;;;;0.10;0.10;;;16.80;80.30;;;;;;4191963;28;20568;-49
2021/05/18 15:16:10;;;;;;;5.38;1.65;;;16.80;80.30;;;;;;4208149;28;20449;-50
2021/05/18 15:18:33;;;;;;;0.15;0.15;;;16.80;80.10;;;;;;4194154;28;20143;-48
2021/05/18 15:20:55;;;;;;;0.00;0.00;;;16.80;80.00;;;;;;4198260;28;20475;-47
2021/05/18 15:23:17;;;;;;;0.05;0.05;;;16.80;79.40;;;;;;4205347;28;20048;-51
2021/05/18 15:25:40;;;;;;;0.00;0.00;;;16.80;79.20;;;;;;4202819;28;20147;-48
2021/05/18 15:28:02;;;;;;;0.22;0.22;;;16.90;79.20;;;;;;4207599;28;20063;-48
2021/05/18 15:30:24;;;;;;;1.00;0.93;;;16.80;79.00;;;;;;4192675;28;20509;-49
2021/05/18 15:32:45;;;;;;;0.00;0.00;;;16.80;79.00;;;;;;4192654;28;20134;-50
2021/05/18 15:35:09;;;;;;;0.00;0.00;;;16.80;78.80;;;;;;4197227;28;20193;-49
2021/05/18 15:37:31;;;;;;;0.00;0.00;;;16.80;78.70;;;;;;4192667;28;20509;-51
2021/05/18 15:39:52;;;;;;;0.10;0.10;;;16.80;78.60;;;;;;4193702;28;20530;-47
2021/05/18 15:42:14;;;;;;;;;;;16.80;78.50;;;;;;4182722;28;20058;-51
2021/05/18 15:44:35;;;;;;;0.00;0.00;;;16.80;78.00;;;;;;4191700;28;19921;-46
2021/05/18 15:46:58;;;;;;;0.73;0.73;;;16.80;77.80;;;;;;4192471;28;20063;-48
2021/05/18 15:49:19;;;;;;;0.55;0.55;;;16.80;77.50;;;;;;4207652;28;20043;-50
2021/05/18 15:51:41;;;;;;;3.08;1.55;;;16.80;77.50;;;;;;4192651;28;20049;-53
2021/05/18 15:54:04;;;;;;;0.63;0.63;;;16.80;77.50;;;;;;4192192;28;20052;-48
2021/05/18 15:56:26;;;;;;;0.70;0.70;;;16.80;77.20;;;;;;4185342;28;20056;-50
2021/05/18 15:58:47;;;;;;;;;;;16.90;77.20;;;;;;4195772;28;20114;-49
2021/05/18 16:01:09;;;;;;;1.23;1.23;;;16.80;77.10;;;;;;4193913;28;19931;-47
2021/05/18 16:03:31;;;;;;;0.00;0.00;;;16.90;77.20;;;;;;4191866;28;20536;-49
2021/05/18 16:05:57;;;;;;;0.30;0.30;;;16.90;76.90;;;;;;4192672;28;20703;-51
2021/05/18 16:11:04;;;;;;;0.75;0.75;;;16.80;76.70;;;;;;4182580;28;20052;-52
2021/05/18 16:13:29;;;;;;;0.22;0.22;;;16.80;76.70;;;;;;4191912;28;20559;-53
2021/05/18 16:15:51;;;;;;;0.80;0.80;;;16.80;76.70;;;;;;4190365;28;20414;-48
2021/05/18 16:18:13;;;;;;;0.10;0.10;;;16.90;76.80;;;;;;4208667;28;20087;-50
2021/05/18 16:20:35;;;;;;;0.20;0.20;;;16.90;76.60;;;;;;4208682;28;20055;-48
2021/05/18 16:22:56;;;;;;;0.00;0.00;;;16.90;76.40;;;;;;4208305;28;20055;-49
2021/05/18 16:25:19;;;;;;;0.00;0.00;;;16.90;76.50;;;;;;4187584;28;20037;-49
2021/05/18 16:27:41;;;;;;;0.00;0.00;;;16.90;76.00;;;;;;4180949;28;20138;-50
2021/05/18 16:30:04;;;;;;;0.20;0.20;;;16.90;76.20;;;;;;4188029;28;20514;-51
2021/05/18 16:32:26;;;;;;;0.05;0.05;;;16.90;76.50;;;;;;4190278;28;20044;-46
2021/05/18 16:34:47;;;;;;;7.32;0.65;;;16.90;76.30;;;;;;4183043;28;20037;-47
2021/05/18 16:37:09;;;;;;;;;;;16.90;76.50;;;;;;4190610;28;20044;-50
2021/05/18 16:39:30;;;;;;;0.00;0.00;;;16.90;76.50;;;;;;4185988;28;19990;-51
2021/05/18 16:41:55;;;;;;;0.35;0.35;;;16.90;76.60;;;;;;4190375;28;20472;-52
2021/05/18 16:44:17;;;;;;;0.80;0.70;;;16.90;76.60;;;;;;4190268;28;20642;-52
2021/05/18 16:46:40;;;;;;;0.10;0.10;;;16.90;76.50;;;;;;4175289;28;20053;-50
2021/05/18 16:49:04;;;;;;;0.22;0.22;;;16.90;76.40;;;;;;4175154;28;20037;-49
2021/05/18 16:51:26;;;;;;;0.00;0.00;;;16.90;76.40;;;;;;4174743;28;20049;-48
2021/05/18 16:53:52;;;;;;;0.00;0.00;;;16.90;76.60;;;;;;4174728;28;20443;-54
2021/05/18 16:56:14;;;;;;;0.22;0.22;;;16.90;76.30;;;;;;4181277;28;20128;-47